sensor_id;sensor_type;location;lat;lon;timestamp;P1;durP1;ratioP1;P2;durP2;ratioP2
46284;SDS011;32018;59.182;18.148;2022-07-23T00:00:24;6.20;;;5.70;;
46284;SDS011;32018;59.182;18.148;2022-07-23T00:02:49;5.85;;;5.35;;
46284;SDS011;32018;59.182;18.148;2022-07-23T00:05:14;5.10;;;4.70;;
46284;SDS011;32018;59.182;18.148;2022-07-23T00:07:40;3.13;;;2.80;;
46284;SDS011;32018;59.182;18.148;2022-07-23T00:10:05;4.53;;;4.13;;
46284;SDS011;32018;59.182;18.148;2022-07-23T00:12:31;3.40;;;3.10;;
46284;SDS011;32018;59.182;18.148;2022-07-23T00:14:56;3.90;;;3.67;;
46284;SDS011;32018;59.182;18.148;2022-07-23T00:17:22;5.97;;;5.50;;
46284;SDS011;32018;59.182;18.148;2022-07-23T00:19:47;6.47;;;4.38;;
46284;SDS011;32018;59.182;18.148;2022-07-23T00:22:12;4.13;;;3.83;;
46284;SDS011;32018;59.182;18.148;2022-07-23T00:24:38;3.80;;;3.45;;
46284;SDS011;32018;59.182;18.148;2022-07-23T00:27:03;5.15;;;4.10;;
46284;SDS011;32018;59.182;18.148;2022-07-23T00:29:28;3.67;;;3.38;;
46284;SDS011;32018;59.182;18.148;2022-07-23T00:31:54;5.90;;;5.30;;
46284;SDS011;32018;59.182;18.148;2022-07-23T00:34:19;4.97;;;4.60;;
46284;SDS011;32018;59.182;18.148;2022-07-23T00:36:44;2.95;;;2.53;;
46284;SDS011;32018;59.182;18.148;2022-07-23T00:39:09;6.18;;;5.47;;
46284;SDS011;32018;59.182;18.148;2022-07-23T00:41:35;6.10;;;5.53;;
46284;SDS011;32018;59.182;18.148;2022-07-23T00:46:47;4.25;;;3.85;;
46284;SDS011;32018;59.182;18.148;2022-07-23T00:49:13;3.85;;;3.45;;
46284;SDS011;32018;59.182;18.148;2022-07-23T00:51:38;9.80;;;4.45;;
46284;SDS011;32018;59.182;18.148;2022-07-23T00:54:04;2.80;;;2.60;;
46284;SDS011;32018;59.182;18.148;2022-07-23T00:56:29;3.58;;;3.10;;
46284;SDS011;32018;59.182;18.148;2022-07-23T00:58:55;5.10;;;4.60;;
46284;SDS011;32018;59.182;18.148;2022-07-23T01:01:21;2.83;;;2.45;;
46284;SDS011;32018;59.182;18.148;2022-07-23T01:03:46;5.53;;;3.70;;
46284;SDS011;32018;59.182;18.148;2022-07-23T01:06:11;6.90;;;4.57;;
46284;SDS011;32018;59.182;18.148;2022-07-23T01:08:36;5.43;;;4.13;;
46284;SDS011;32018;59.182;18.148;2022-07-23T01:11:02;5.00;;;3.70;;
46284;SDS011;32018;59.182;18.148;2022-07-23T01:13:27;7.20;;;4.88;;
46284;SDS011;32018;59.182;18.148;2022-07-23T01:15:52;6.78;;;3.90;;
46284;SDS011;32018;59.182;18.148;2022-07-23T01:18:17;5.43;;;3.57;;
46284;SDS011;32018;59.182;18.148;2022-07-23T01:20:43;5.00;;;3.00;;
46284;SDS011;32018;59.182;18.148;2022-07-23T01:23:08;2.43;;;2.20;;
46284;SDS011;32018;59.182;18.148;2022-07-23T01:25:33;9.33;;;3.40;;
46284;SDS011;32018;59.182;18.148;2022-07-23T01:27:59;14.13;;;4.80;;
46284;SDS011;32018;59.182;18.148;2022-07-23T01:30:24;3.60;;;3.30;;
46284;SDS011;32018;59.182;18.148;2022-07-23T01:32:49;2.72;;;2.42;;
46284;SDS011;32018;59.182;18.148;2022-07-23T01:35:14;6.97;;;3.83;;
46284;SDS011;32018;59.182;18.148;2022-07-23T01:37:40;8.10;;;4.97;;
46284;SDS011;32018;59.182;18.148;2022-07-23T01:40:05;4.60;;;2.40;;
46284;SDS011;32018;59.182;18.148;2022-07-23T01:42:31;9.50;;;5.30;;
46284;SDS011;32018;59.182;18.148;2022-07-23T01:44:56;4.90;;;3.42;;
46284;SDS011;32018;59.182;18.148;2022-07-23T01:47:21;6.60;;;4.15;;
46284;SDS011;32018;59.182;18.148;2022-07-23T01:49:47;2.97;;;2.78;;
46284;SDS011;32018;59.182;18.148;2022-07-23T01:52:12;7.10;;;3.83;;
46284;SDS011;32018;59.182;18.148;2022-07-23T01:54:37;2.37;;;2.17;;
46284;SDS011;32018;59.182;18.148;2022-07-23T01:57:03;11.50;;;4.78;;
46284;SDS011;32018;59.182;18.148;2022-07-23T01:59:29;17.38;;;7.47;;
46284;SDS011;32018;59.182;18.148;2022-07-23T02:01:54;2.80;;;2.50;;
46284;SDS011;32018;59.182;18.148;2022-07-23T02:04:20;4.45;;;2.85;;
46284;SDS011;32018;59.182;18.148;2022-07-23T02:06:46;4.72;;;3.42;;
46284;SDS011;32018;59.182;18.148;2022-07-23T02:09:11;7.07;;;4.15;;
46284;SDS011;32018;59.182;18.148;2022-07-23T02:11:37;5.18;;;3.65;;
46284;SDS011;32018;59.182;18.148;2022-07-23T02:14:02;10.02;;;4.28;;
46284;SDS011;32018;59.182;18.148;2022-07-23T02:16:27;12.95;;;5.50;;
46284;SDS011;32018;59.182;18.148;2022-07-23T02:18:52;11.20;;;5.13;;
46284;SDS011;32018;59.182;18.148;2022-07-23T02:21:18;9.90;;;5.22;;
46284;SDS011;32018;59.182;18.148;2022-07-23T02:23:43;2.40;;;2.20;;
46284;SDS011;32018;59.182;18.148;2022-07-23T02:26:08;3.93;;;3.03;;
46284;SDS011;32018;59.182;18.148;2022-07-23T02:28:34;3.53;;;2.55;;
46284;SDS011;32018;59.182;18.148;2022-07-23T02:30:59;18.30;;;10.30;;
46284;SDS011;32018;59.182;18.148;2022-07-23T02:33:24;2.25;;;2.00;;
46284;SDS011;32018;59.182;18.148;2022-07-23T02:35:50;4.55;;;3.33;;
46284;SDS011;32018;59.182;18.148;2022-07-23T02:38:15;6.28;;;3.70;;
46284;SDS011;32018;59.182;18.148;2022-07-23T02:40:40;7.87;;;5.80;;
46284;SDS011;32018;59.182;18.148;2022-07-23T02:43:06;5.80;;;3.70;;
46284;SDS011;32018;59.182;18.148;2022-07-23T02:45:31;5.45;;;4.50;;
46284;SDS011;32018;59.182;18.148;2022-07-23T02:47:56;7.10;;;4.47;;
46284;SDS011;32018;59.182;18.148;2022-07-23T02:50:22;9.18;;;5.22;;
46284;SDS011;32018;59.182;18.148;2022-07-23T02:52:47;4.30;;;3.90;;
46284;SDS011;32018;59.182;18.148;2022-07-23T02:55:12;11.07;;;8.10;;
46284;SDS011;32018;59.182;18.148;2022-07-23T02:57:38;2.90;;;2.60;;
46284;SDS011;32018;59.182;18.148;2022-07-23T03:00:03;3.53;;;2.95;;
46284;SDS011;32018;59.182;18.148;2022-07-23T03:02:29;3.35;;;3.00;;
46284;SDS011;32018;59.182;18.148;2022-07-23T03:04:54;4.07;;;3.58;;
46284;SDS011;32018;59.182;18.148;2022-07-23T03:07:20;4.05;;;3.00;;
46284;SDS011;32018;59.182;18.148;2022-07-23T03:09:45;3.77;;;3.10;;
46284;SDS011;32018;59.182;18.148;2022-07-23T03:12:10;8.95;;;6.68;;
46284;SDS011;32018;59.182;18.148;2022-07-23T03:14:36;4.88;;;3.55;;
46284;SDS011;32018;59.182;18.148;2022-07-23T03:17:01;3.08;;;2.78;;
46284;SDS011;32018;59.182;18.148;2022-07-23T03:19:26;4.87;;;4.00;;
46284;SDS011;32018;59.182;18.148;2022-07-23T03:21:51;3.58;;;3.20;;
46284;SDS011;32018;59.182;18.148;2022-07-23T03:24:17;7.77;;;4.83;;
46284;SDS011;32018;59.182;18.148;2022-07-23T03:26:45;6.90;;;5.88;;
46284;SDS011;32018;59.182;18.148;2022-07-23T03:29:10;4.72;;;3.78;;
46284;SDS011;32018;59.182;18.148;2022-07-23T03:31:35;6.78;;;5.55;;
46284;SDS011;32018;59.182;18.148;2022-07-23T03:34:01;4.63;;;3.87;;
46284;SDS011;32018;59.182;18.148;2022-07-23T03:36:26;5.97;;;5.13;;
46284;SDS011;32018;59.182;18.148;2022-07-23T03:38:51;6.18;;;5.18;;
46284;SDS011;32018;59.182;18.148;2022-07-23T03:41:17;5.75;;;3.67;;
46284;SDS011;32018;59.182;18.148;2022-07-23T03:43:42;6.00;;;4.80;;
46284;SDS011;32018;59.182;18.148;2022-07-23T03:46:08;4.23;;;3.83;;
46284;SDS011;32018;59.182;18.148;2022-07-23T03:48:33;4.95;;;3.50;;
46284;SDS011;32018;59.182;18.148;2022-07-23T03:50:58;3.95;;;3.53;;
46284;SDS011;32018;59.182;18.148;2022-07-23T03:53:24;8.20;;;5.38;;
46284;SDS011;32018;59.182;18.148;2022-07-23T03:55:49;3.75;;;3.20;;
46284;SDS011;32018;59.182;18.148;2022-07-23T03:58:14;4.35;;;3.33;;
46284;SDS011;32018;59.182;18.148;2022-07-23T04:00:39;3.28;;;2.97;;
46284;SDS011;32018;59.182;18.148;2022-07-23T04:03:05;3.40;;;3.10;;
46284;SDS011;32018;59.182;18.148;2022-07-23T04:05:30;2.83;;;2.53;;
46284;SDS011;32018;59.182;18.148;2022-07-23T04:07:55;2.65;;;2.45;;
46284;SDS011;32018;59.182;18.148;2022-07-23T04:10:21;3.05;;;2.75;;
46284;SDS011;32018;59.182;18.148;2022-07-23T04:12:46;3.00;;;2.70;;
46284;SDS011;32018;59.182;18.148;2022-07-23T04:15:11;2.97;;;1.97;;
46284;SDS011;32018;59.182;18.148;2022-07-23T04:17:36;2.65;;;2.38;;
46284;SDS011;32018;59.182;18.148;2022-07-23T04:20:02;2.23;;;2.03;;
46284;SDS011;32018;59.182;18.148;2022-07-23T04:22:27;2.08;;;1.88;;
46284;SDS011;32018;59.182;18.148;2022-07-23T04:24:53;2.07;;;1.60;;
46284;SDS011;32018;59.182;18.148;2022-07-23T04:27:18;2.70;;;1.63;;
46284;SDS011;32018;59.182;18.148;2022-07-23T04:29:44;1.70;;;1.58;;
46284;SDS011;32018;59.182;18.148;2022-07-23T04:32:09;2.17;;;1.77;;
46284;SDS011;32018;59.182;18.148;2022-07-23T04:34:34;1.93;;;1.70;;
46284;SDS011;32018;59.182;18.148;2022-07-23T04:37:00;1.63;;;1.52;;
46284;SDS011;32018;59.182;18.148;2022-07-23T04:39:25;1.70;;;1.50;;
46284;SDS011;32018;59.182;18.148;2022-07-23T04:41:50;2.13;;;1.67;;
46284;SDS011;32018;59.182;18.148;2022-07-23T04:44:15;1.80;;;1.70;;
46284;SDS011;32018;59.182;18.148;2022-07-23T04:46:41;1.43;;;1.33;;
46284;SDS011;32018;59.182;18.148;2022-07-23T04:49:06;2.83;;;1.75;;
46284;SDS011;32018;59.182;18.148;2022-07-23T04:51:31;1.60;;;1.30;;
46284;SDS011;32018;59.182;18.148;2022-07-23T04:53:56;1.55;;;1.25;;
46284;SDS011;32018;59.182;18.148;2022-07-23T04:56:22;2.85;;;1.23;;
46284;SDS011;32018;59.182;18.148;2022-07-23T04:58:47;1.27;;;1.17;;
46284;SDS011;32018;59.182;18.148;2022-07-23T05:01:12;1.60;;;1.50;;
46284;SDS011;32018;59.182;18.148;2022-07-23T05:03:38;1.25;;;1.15;;
46284;SDS011;32018;59.182;18.148;2022-07-23T05:06:03;1.40;;;1.30;;
46284;SDS011;32018;59.182;18.148;2022-07-23T05:08:29;1.20;;;1.10;;
46284;SDS011;32018;59.182;18.148;2022-07-23T05:10:54;2.22;;;1.33;;
46284;SDS011;32018;59.182;18.148;2022-07-23T05:13:19;1.48;;;1.38;;
46284;SDS011;32018;59.182;18.148;2022-07-23T05:15:45;1.60;;;1.05;;
46284;SDS011;32018;59.182;18.148;2022-07-23T05:18:11;1.70;;;1.60;;
46284;SDS011;32018;59.182;18.148;2022-07-23T05:20:36;1.33;;;1.15;;
46284;SDS011;32018;59.182;18.148;2022-07-23T05:23:01;1.17;;;0.88;;
46284;SDS011;32018;59.182;18.148;2022-07-23T05:25:27;1.17;;;1.08;;
46284;SDS011;32018;59.182;18.148;2022-07-23T05:27:52;1.27;;;1.17;;
46284;SDS011;32018;59.182;18.148;2022-07-23T05:30:17;0.80;;;0.80;;
46284;SDS011;32018;59.182;18.148;2022-07-23T05:32:43;1.52;;;0.82;;
46284;SDS011;32018;59.182;18.148;2022-07-23T05:35:08;0.80;;;0.80;;
46284;SDS011;32018;59.182;18.148;2022-07-23T05:37:33;0.98;;;0.88;;
46284;SDS011;32018;59.182;18.148;2022-07-23T05:40:00;0.70;;;0.70;;
46284;SDS011;32018;59.182;18.148;2022-07-23T05:42:25;0.90;;;0.80;;
46284;SDS011;32018;59.182;18.148;2022-07-23T05:44:51;1.50;;;0.70;;
46284;SDS011;32018;59.182;18.148;2022-07-23T05:47:16;0.90;;;0.80;;
46284;SDS011;32018;59.182;18.148;2022-07-23T05:49:42;0.77;;;0.77;;
46284;SDS011;32018;59.182;18.148;2022-07-23T05:52:08;0.73;;;0.70;;
46284;SDS011;32018;59.182;18.148;2022-07-23T05:54:34;0.50;;;0.50;;
46284;SDS011;32018;59.182;18.148;2022-07-23T05:56:59;2.05;;;0.98;;
46284;SDS011;32018;59.182;18.148;2022-07-23T05:59:24;0.85;;;0.82;;
46284;SDS011;32018;59.182;18.148;2022-07-23T06:01:49;0.80;;;0.70;;
46284;SDS011;32018;59.182;18.148;2022-07-23T06:04:15;1.07;;;0.90;;
46284;SDS011;32018;59.182;18.148;2022-07-23T06:06:40;1.37;;;0.80;;
46284;SDS011;32018;59.182;18.148;2022-07-23T06:09:05;0.90;;;0.73;;
46284;SDS011;32018;59.182;18.148;2022-07-23T06:11:31;0.93;;;0.82;;
46284;SDS011;32018;59.182;18.148;2022-07-23T06:13:56;1.50;;;1.20;;
46284;SDS011;32018;59.182;18.148;2022-07-23T06:16:21;0.95;;;0.82;;
46284;SDS011;32018;59.182;18.148;2022-07-23T06:18:46;1.13;;;0.70;;
46284;SDS011;32018;59.182;18.148;2022-07-23T06:21:12;0.85;;;0.70;;
46284;SDS011;32018;59.182;18.148;2022-07-23T06:23:37;0.97;;;0.63;;
46284;SDS011;32018;59.182;18.148;2022-07-23T06:26:02;1.00;;;0.80;;
46284;SDS011;32018;59.182;18.148;2022-07-23T06:28:28;0.65;;;0.63;;
46284;SDS011;32018;59.182;18.148;2022-07-23T06:30:53;1.50;;;1.37;;
46284;SDS011;32018;59.182;18.148;2022-07-23T06:33:18;0.73;;;0.70;;
46284;SDS011;32018;59.182;18.148;2022-07-23T06:35:43;0.80;;;0.80;;
46284;SDS011;32018;59.182;18.148;2022-07-23T06:38:08;0.90;;;0.90;;
46284;SDS011;32018;59.182;18.148;2022-07-23T06:40:34;1.15;;;0.80;;
46284;SDS011;32018;59.182;18.148;2022-07-23T06:42:59;1.00;;;0.68;;
46284;SDS011;32018;59.182;18.148;2022-07-23T06:45:24;0.93;;;0.90;;
46284;SDS011;32018;59.182;18.148;2022-07-23T06:47:50;0.90;;;0.90;;
46284;SDS011;32018;59.182;18.148;2022-07-23T06:50:15;0.90;;;0.90;;
46284;SDS011;32018;59.182;18.148;2022-07-23T06:52:40;1.03;;;0.70;;
46284;SDS011;32018;59.182;18.148;2022-07-23T06:55:05;0.70;;;0.68;;
46284;SDS011;32018;59.182;18.148;2022-07-23T06:57:31;0.60;;;0.60;;
46284;SDS011;32018;59.182;18.148;2022-07-23T06:59:57;1.42;;;0.80;;
46284;SDS011;32018;59.182;18.148;2022-07-23T07:02:22;0.65;;;0.60;;
46284;SDS011;32018;59.182;18.148;2022-07-23T07:04:47;0.50;;;0.50;;
46284;SDS011;32018;59.182;18.148;2022-07-23T07:07:13;0.82;;;0.50;;
46284;SDS011;32018;59.182;18.148;2022-07-23T07:09:39;0.40;;;0.40;;
46284;SDS011;32018;59.182;18.148;2022-07-23T07:12:04;0.85;;;0.80;;
46284;SDS011;32018;59.182;18.148;2022-07-23T07:14:29;0.85;;;0.68;;
46284;SDS011;32018;59.182;18.148;2022-07-23T07:16:55;1.52;;;0.63;;
46284;SDS011;32018;59.182;18.148;2022-07-23T07:19:20;0.80;;;0.80;;
46284;SDS011;32018;59.182;18.148;2022-07-23T07:21:46;0.60;;;0.60;;
46284;SDS011;32018;59.182;18.148;2022-07-23T07:24:11;0.53;;;0.53;;
46284;SDS011;32018;59.182;18.148;2022-07-23T07:26:36;0.50;;;0.50;;
46284;SDS011;32018;59.182;18.148;2022-07-23T07:29:03;0.38;;;0.38;;
46284;SDS011;32018;59.182;18.148;2022-07-23T07:31:28;0.60;;;0.60;;
46284;SDS011;32018;59.182;18.148;2022-07-23T07:33:54;0.50;;;0.50;;
46284;SDS011;32018;59.182;18.148;2022-07-23T07:36:21;0.50;;;0.40;;
46284;SDS011;32018;59.182;18.148;2022-07-23T07:38:47;0.60;;;0.60;;
46284;SDS011;32018;59.182;18.148;2022-07-23T07:41:12;0.50;;;0.45;;
46284;SDS011;32018;59.182;18.148;2022-07-23T07:43:38;0.95;;;0.50;;
46284;SDS011;32018;59.182;18.148;2022-07-23T07:46:03;1.10;;;0.50;;
46284;SDS011;32018;59.182;18.148;2022-07-23T07:48:28;0.50;;;0.50;;
46284;SDS011;32018;59.182;18.148;2022-07-23T07:50:54;0.55;;;0.50;;
46284;SDS011;32018;59.182;18.148;2022-07-23T07:53:19;0.47;;;0.47;;
46284;SDS011;32018;59.182;18.148;2022-07-23T07:55:44;0.57;;;0.40;;
46284;SDS011;32018;59.182;18.148;2022-07-23T07:58:10;0.45;;;0.43;;
46284;SDS011;32018;59.182;18.148;2022-07-23T08:00:35;0.57;;;0.40;;
46284;SDS011;32018;59.182;18.148;2022-07-23T08:03:01;0.30;;;0.30;;
46284;SDS011;32018;59.182;18.148;2022-07-23T08:05:27;0.40;;;0.40;;
46284;SDS011;32018;59.182;18.148;2022-07-23T08:07:54;0.35;;;0.30;;
46284;SDS011;32018;59.182;18.148;2022-07-23T08:10:20;0.30;;;0.30;;
46284;SDS011;32018;59.182;18.148;2022-07-23T08:12:46;0.40;;;0.40;;
46284;SDS011;32018;59.182;18.148;2022-07-23T08:15:12;0.50;;;0.40;;
46284;SDS011;32018;59.182;18.148;2022-07-23T08:17:37;0.30;;;0.30;;
46284;SDS011;32018;59.182;18.148;2022-07-23T08:20:03;0.20;;;0.20;;
46284;SDS011;32018;59.182;18.148;2022-07-23T08:22:48;0.30;;;0.30;;
46284;SDS011;32018;59.182;18.148;2022-07-23T08:25:15;0.30;;;0.30;;
46284;SDS011;32018;59.182;18.148;2022-07-23T08:27:41;0.40;;;0.40;;
46284;SDS011;32018;59.182;18.148;2022-07-23T08:30:06;0.43;;;0.40;;
46284;SDS011;32018;59.182;18.148;2022-07-23T08:32:32;0.40;;;0.40;;
46284;SDS011;32018;59.182;18.148;2022-07-23T08:34:58;0.40;;;0.40;;
46284;SDS011;32018;59.182;18.148;2022-07-23T08:37:23;0.57;;;0.57;;
46284;SDS011;32018;59.182;18.148;2022-07-23T08:39:48;0.30;;;0.30;;
46284;SDS011;32018;59.182;18.148;2022-07-23T08:42:13;1.07;;;0.40;;
46284;SDS011;32018;59.182;18.148;2022-07-23T08:44:40;0.35;;;0.35;;
46284;SDS011;32018;59.182;18.148;2022-07-23T08:47:08;0.65;;;0.40;;
46284;SDS011;32018;59.182;18.148;2022-07-23T08:49:34;0.40;;;0.40;;
46284;SDS011;32018;59.182;18.148;2022-07-23T08:52:00;0.40;;;0.40;;
46284;SDS011;32018;59.182;18.148;2022-07-23T08:54:25;0.77;;;0.50;;
46284;SDS011;32018;59.182;18.148;2022-07-23T08:56:51;0.30;;;0.30;;
46284;SDS011;32018;59.182;18.148;2022-07-23T08:59:16;0.43;;;0.43;;
46284;SDS011;32018;59.182;18.148;2022-07-23T09:01:41;0.30;;;0.30;;
46284;SDS011;32018;59.182;18.148;2022-07-23T09:04:07;0.37;;;0.37;;
46284;SDS011;32018;59.182;18.148;2022-07-23T09:06:32;0.37;;;0.33;;
46284;SDS011;32018;59.182;18.148;2022-07-23T09:08:57;0.40;;;0.40;;
46284;SDS011;32018;59.182;18.148;2022-07-23T09:11:22;0.30;;;0.28;;
46284;SDS011;32018;59.182;18.148;2022-07-23T09:13:48;0.22;;;0.22;;
46284;SDS011;32018;59.182;18.148;2022-07-23T09:16:18;0.60;;;0.40;;
46284;SDS011;32018;59.182;18.148;2022-07-23T09:18:48;0.50;;;0.40;;
46284;SDS011;32018;59.182;18.148;2022-07-23T09:23:40;0.28;;;0.20;;
46284;SDS011;32018;59.182;18.148;2022-07-23T09:26:16;0.20;;;0.20;;
46284;SDS011;32018;59.182;18.148;2022-07-23T09:29:15;0.20;;;0.20;;
46284;SDS011;32018;59.182;18.148;2022-07-23T09:34:09;0.20;;;0.20;;
46284;SDS011;32018;59.182;18.148;2022-07-23T09:36:34;0.20;;;0.20;;
46284;SDS011;32018;59.182;18.148;2022-07-23T09:39:00;0.40;;;0.40;;
46284;SDS011;32018;59.182;18.148;2022-07-23T09:41:25;0.20;;;0.20;;
46284;SDS011;32018;59.182;18.148;2022-07-23T09:43:58;0.20;;;0.20;;
46284;SDS011;32018;59.182;18.148;2022-07-23T09:46:31;0.30;;;0.30;;
46284;SDS011;32018;59.182;18.148;2022-07-23T09:48:56;0.37;;;0.37;;
46284;SDS011;32018;59.182;18.148;2022-07-23T09:51:22;0.30;;;0.30;;
46284;SDS011;32018;59.182;18.148;2022-07-23T09:53:51;1.33;;;0.50;;
46284;SDS011;32018;59.182;18.148;2022-07-23T09:56:17;0.30;;;0.30;;
46284;SDS011;32018;59.182;18.148;2022-07-23T09:58:45;0.35;;;0.35;;
46284;SDS011;32018;59.182;18.148;2022-07-23T10:01:12;0.32;;;0.32;;
46284;SDS011;32018;59.182;18.148;2022-07-23T10:03:38;0.40;;;0.40;;
46284;SDS011;32018;59.182;18.148;2022-07-23T10:06:04;0.20;;;0.20;;
46284;SDS011;32018;59.182;18.148;2022-07-23T10:08:29;0.20;;;0.20;;
46284;SDS011;32018;59.182;18.148;2022-07-23T10:10:55;0.40;;;0.35;;
46284;SDS011;32018;59.182;18.148;2022-07-23T10:13:20;0.20;;;0.20;;
46284;SDS011;32018;59.182;18.148;2022-07-23T10:16:04;0.20;;;0.20;;
46284;SDS011;32018;59.182;18.148;2022-07-23T10:18:30;1.25;;;0.20;;
46284;SDS011;32018;59.182;18.148;2022-07-23T10:20:55;0.20;;;0.20;;
46284;SDS011;32018;59.182;18.148;2022-07-23T10:23:25;0.43;;;0.30;;
46284;SDS011;32018;59.182;18.148;2022-07-23T10:28:33;0.20;;;0.20;;
46284;SDS011;32018;59.182;18.148;2022-07-23T10:36:41;0.15;;;0.15;;
46284;SDS011;32018;59.182;18.148;2022-07-23T10:39:08;0.25;;;0.25;;
46284;SDS011;32018;59.182;18.148;2022-07-23T10:41:40;0.25;;;0.22;;
46284;SDS011;32018;59.182;18.148;2022-07-23T10:44:13;0.20;;;0.20;;
46284;SDS011;32018;59.182;18.148;2022-07-23T10:46:54;0.30;;;0.30;;
46284;SDS011;32018;59.182;18.148;2022-07-23T10:49:27;0.20;;;0.20;;
46284;SDS011;32018;59.182;18.148;2022-07-23T10:54:37;0.28;;;0.20;;
46284;SDS011;32018;59.182;18.148;2022-07-23T10:57:06;0.10;;;0.10;;
46284;SDS011;32018;59.182;18.148;2022-07-23T10:59:32;0.17;;;0.17;;
46284;SDS011;32018;59.182;18.148;2022-07-23T11:02:21;0.30;;;0.30;;
46284;SDS011;32018;59.182;18.148;2022-07-23T11:04:48;0.10;;;0.10;;
46284;SDS011;32018;59.182;18.148;2022-07-23T11:07:14;0.13;;;0.13;;
46284;SDS011;32018;59.182;18.148;2022-07-23T11:09:41;0.47;;;0.22;;
46284;SDS011;32018;59.182;18.148;2022-07-23T11:12:48;0.20;;;0.20;;
46284;SDS011;32018;59.182;18.148;2022-07-23T11:17:30;1.00;;;0.10;;
46284;SDS011;32018;59.182;18.148;2022-07-23T11:22:47;0.10;;;0.10;;
46284;SDS011;32018;59.182;18.148;2022-07-23T11:27:48;0.10;;;0.10;;
46284;SDS011;32018;59.182;18.148;2022-07-23T11:32:51;0.30;;;0.20;;
46284;SDS011;32018;59.182;18.148;2022-07-23T11:35:23;0.57;;;0.50;;
46284;SDS011;32018;59.182;18.148;2022-07-23T11:37:50;0.10;;;0.10;;
46284;SDS011;32018;59.182;18.148;2022-07-23T11:40:19;0.20;;;0.20;;
46284;SDS011;32018;59.182;18.148;2022-07-23T11:42:55;0.52;;;0.10;;
46284;SDS011;32018;59.182;18.148;2022-07-23T11:45:20;0.17;;;0.10;;
46284;SDS011;32018;59.182;18.148;2022-07-23T11:47:46;0.55;;;0.40;;
46284;SDS011;32018;59.182;18.148;2022-07-23T11:50:11;0.30;;;0.27;;
46284;SDS011;32018;59.182;18.148;2022-07-23T11:52:38;0.52;;;0.30;;
46284;SDS011;32018;59.182;18.148;2022-07-23T11:55:05;0.20;;;0.10;;
46284;SDS011;32018;59.182;18.148;2022-07-23T11:57:31;0.75;;;0.20;;
46284;SDS011;32018;59.182;18.148;2022-07-23T12:02:28;0.65;;;0.10;;
46284;SDS011;32018;59.182;18.148;2022-07-23T12:04:54;0.10;;;0.10;;
46284;SDS011;32018;59.182;18.148;2022-07-23T12:07:30;0.50;;;0.17;;
46284;SDS011;32018;59.182;18.148;2022-07-23T12:09:57;0.40;;;0.20;;
46284;SDS011;32018;59.182;18.148;2022-07-23T12:12:23;0.60;;;0.20;;
46284;SDS011;32018;59.182;18.148;2022-07-23T12:14:52;0.38;;;0.20;;
46284;SDS011;32018;59.182;18.148;2022-07-23T12:17:17;0.20;;;0.20;;
46284;SDS011;32018;59.182;18.148;2022-07-23T12:19:43;1.27;;;0.30;;
46284;SDS011;32018;59.182;18.148;2022-07-23T12:22:08;0.60;;;0.30;;
46284;SDS011;32018;59.182;18.148;2022-07-23T12:27:37;0.52;;;0.20;;
46284;SDS011;32018;59.182;18.148;2022-07-23T12:33:01;0.82;;;0.20;;
46284;SDS011;32018;59.182;18.148;2022-07-23T12:35:41;0.38;;;0.15;;
46284;SDS011;32018;59.182;18.148;2022-07-23T12:38:08;0.30;;;0.10;;
46284;SDS011;32018;59.182;18.148;2022-07-23T12:43:07;0.03;;;0.03;;
46284;SDS011;32018;59.182;18.148;2022-07-23T12:45:44;0.22;;;0.10;;
46284;SDS011;32018;59.182;18.148;2022-07-23T12:48:15;0.25;;;0.10;;
46284;SDS011;32018;59.182;18.148;2022-07-23T12:53:16;0.20;;;0.10;;
46284;SDS011;32018;59.182;18.148;2022-07-23T12:55:42;0.08;;;0.08;;
46284;SDS011;32018;59.182;18.148;2022-07-23T12:58:12;0.32;;;0.20;;
46284;SDS011;32018;59.182;18.148;2022-07-23T13:00:53;0.22;;;0.20;;
46284;SDS011;32018;59.182;18.148;2022-07-23T13:05:57;0.10;;;0.10;;
46284;SDS011;32018;59.182;18.148;2022-07-23T13:08:22;0.73;;;0.20;;
46284;SDS011;32018;59.182;18.148;2022-07-23T13:10:48;0.10;;;0.10;;
46284;SDS011;32018;59.182;18.148;2022-07-23T13:13:16;0.10;;;0.10;;
46284;SDS011;32018;59.182;18.148;2022-07-23T13:15:42;0.17;;;0.17;;
46284;SDS011;32018;59.182;18.148;2022-07-23T13:18:07;0.17;;;0.10;;
46284;SDS011;32018;59.182;18.148;2022-07-23T13:20:33;0.30;;;0.20;;
46284;SDS011;32018;59.182;18.148;2022-07-23T13:22:59;0.15;;;0.10;;
46284;SDS011;32018;59.182;18.148;2022-07-23T13:25:24;0.17;;;0.10;;
46284;SDS011;32018;59.182;18.148;2022-07-23T13:27:49;0.13;;;0.13;;
46284;SDS011;32018;59.182;18.148;2022-07-23T13:30:15;0.60;;;0.20;;
46284;SDS011;32018;59.182;18.148;2022-07-23T13:32:40;0.20;;;0.20;;
46284;SDS011;32018;59.182;18.148;2022-07-23T13:35:06;0.52;;;0.20;;
46284;SDS011;32018;59.182;18.148;2022-07-23T13:37:31;0.38;;;0.20;;
46284;SDS011;32018;59.182;18.148;2022-07-23T13:39:57;0.20;;;0.10;;
46284;SDS011;32018;59.182;18.148;2022-07-23T13:42:22;0.38;;;0.20;;
46284;SDS011;32018;59.182;18.148;2022-07-23T13:44:47;0.70;;;0.20;;
46284;SDS011;32018;59.182;18.148;2022-07-23T13:47:13;0.22;;;0.20;;
46284;SDS011;32018;59.182;18.148;2022-07-23T13:49:38;0.17;;;0.10;;
46284;SDS011;32018;59.182;18.148;2022-07-23T13:52:03;0.63;;;0.20;;
46284;SDS011;32018;59.182;18.148;2022-07-23T13:54:29;0.20;;;0.20;;
46284;SDS011;32018;59.182;18.148;2022-07-23T13:56:54;1.75;;;0.20;;
46284;SDS011;32018;59.182;18.148;2022-07-23T13:59:19;0.20;;;0.20;;
46284;SDS011;32018;59.182;18.148;2022-07-23T14:01:45;0.20;;;0.15;;
46284;SDS011;32018;59.182;18.148;2022-07-23T14:04:10;0.10;;;0.10;;
46284;SDS011;32018;59.182;18.148;2022-07-23T14:06:35;0.40;;;0.20;;
46284;SDS011;32018;59.182;18.148;2022-07-23T14:09:01;0.20;;;0.20;;
46284;SDS011;32018;59.182;18.148;2022-07-23T14:11:26;0.30;;;0.28;;
46284;SDS011;32018;59.182;18.148;2022-07-23T14:13:53;0.10;;;0.10;;
46284;SDS011;32018;59.182;18.148;2022-07-23T14:16:18;1.75;;;0.10;;
46284;SDS011;32018;59.182;18.148;2022-07-23T14:18:43;0.10;;;0.10;;
46284;SDS011;32018;59.182;18.148;2022-07-23T14:21:08;0.10;;;0.10;;
46284;SDS011;32018;59.182;18.148;2022-07-23T14:23:34;0.38;;;0.20;;
46284;SDS011;32018;59.182;18.148;2022-07-23T14:25:59;0.85;;;0.40;;
46284;SDS011;32018;59.182;18.148;2022-07-23T14:28:24;0.13;;;0.13;;
46284;SDS011;32018;59.182;18.148;2022-07-23T14:30:49;0.20;;;0.20;;
46284;SDS011;32018;59.182;18.148;2022-07-23T14:33:15;0.45;;;0.25;;
46284;SDS011;32018;59.182;18.148;2022-07-23T14:35:41;0.20;;;0.20;;
46284;SDS011;32018;59.182;18.148;2022-07-23T14:38:06;0.20;;;0.20;;
46284;SDS011;32018;59.182;18.148;2022-07-23T14:40:32;0.20;;;0.20;;
46284;SDS011;32018;59.182;18.148;2022-07-23T14:42:57;0.10;;;0.10;;
46284;SDS011;32018;59.182;18.148;2022-07-23T14:45:22;0.20;;;0.20;;
46284;SDS011;32018;59.182;18.148;2022-07-23T14:47:48;0.15;;;0.15;;
46284;SDS011;32018;59.182;18.148;2022-07-23T14:50:13;0.10;;;0.10;;
46284;SDS011;32018;59.182;18.148;2022-07-23T14:52:39;0.30;;;0.20;;
46284;SDS011;32018;59.182;18.148;2022-07-23T14:55:04;0.10;;;0.10;;
46284;SDS011;32018;59.182;18.148;2022-07-23T14:57:30;0.60;;;0.30;;
46284;SDS011;32018;59.182;18.148;2022-07-23T14:59:55;0.20;;;0.20;;
46284;SDS011;32018;59.182;18.148;2022-07-23T15:02:20;0.20;;;0.20;;
46284;SDS011;32018;59.182;18.148;2022-07-23T15:04:45;0.22;;;0.17;;
46284;SDS011;32018;59.182;18.148;2022-07-23T15:07:11;0.05;;;0.05;;
46284;SDS011;32018;59.182;18.148;2022-07-23T15:09:36;0.30;;;0.20;;
46284;SDS011;32018;59.182;18.148;2022-07-23T15:12:01;0.20;;;0.20;;